Time;durP1;ratioP1;P1;durP2;ratioP2;P2;SDS_P1;SDS_P2;PMS_P1;PMS_P2;Temp;Humidity;BMP_temperature;BMP_pressure;BME280_temperature;BME280_humidity;BME280_pressure;Samples;Min_cycle;Max_cycle;Signal;HPM_P1;HPM_P2
2022/12/17 13:06:53;;;;;;;72.80;24.57;;;;;;;-3.84;88.19;101610.73;1791706;79;20185;-77
2022/12/17 13:09:32;;;;;;;66.73;26.30;;;;;;;-3.81;88.17;101618.95;1776524;79;21058;-82
2022/12/17 13:12:23;;;;;;;66.43;23.30;;;;;;;-3.84;88.37;101612.02;1791288;79;21042;-81
2022/12/17 13:15:08;;;;;;;62.53;24.03;;;;;;;-3.79;88.52;101614.77;1793690;79;21102;-84
2022/12/17 13:18:06;;;;;;;62.10;23.63;;;;;;;-3.78;88.35;101622.05;1793666;79;20988;-82
2022/12/17 13:20:34;;;;;;;62.77;22.87;;;;;;;-3.83;88.24;101620.56;1789348;79;20995;-80
2022/12/17 13:23:27;;;;;;;65.03;23.30;;;;;;;-3.82;88.29;101623.63;1794790;78;21034;-80
2022/12/17 13:26:23;;;;;;;67.40;26.97;;;;;;;-3.80;88.45;101629.66;1805378;78;21363;-76
2022/12/17 13:28:58;;;;;;;63.33;25.30;;;;;;;-3.77;88.50;101632.34;1804213;78;21914;-76
2022/12/17 13:31:32;;;;;;;69.40;26.87;;;;;;;-3.80;88.25;101627.09;1796166;79;21047;-76
2022/12/17 13:34:20;;;;;;;68.93;26.93;;;;;;;-3.84;88.14;101633.79;1805534;77;21434;-76
2022/12/17 13:37:10;;;;;;;76.43;27.57;;;;;;;-3.89;88.13;101638.25;1765391;79;21494;-76
2022/12/17 13:40:01;;;;;;;68.80;26.82;;;;;;;-3.93;88.19;101641.52;1798351;77;21031;-76
2022/12/17 13:42:31;;;;;;;67.00;26.82;;;;;;;-3.92;88.45;101645.81;1798822;79;22350;-80
2022/12/17 13:44:59;;;;;;;75.72;26.45;;;;;;;-3.96;88.38;101659.28;1795870;79;21015;-80
2022/12/17 13:47:30;;;;;;;61.97;25.80;;;;;;;-3.96;88.38;101659.28;1798482;79;21024;-82
2022/12/17 13:50:00;;;;;;;120.83;36.70;;;;;;;-3.99;88.43;101666.46;1798120;77;21015;-83
2022/12/17 13:52:29;;;;;;;73.22;27.22;;;;;;;-3.98;88.68;101666.05;1798637;79;20992;-81
2022/12/17 13:55:10;;;;;;;73.10;27.67;;;;;;;-3.95;88.75;101672.58;1798978;79;21332;-80
2022/12/17 13:57:39;;;;;;;78.03;28.93;;;;;;;-3.92;88.83;101672.70;1797544;79;21031;-80
2022/12/17 14:00:12;;;;;;;77.93;28.77;;;;;;;-3.91;88.75;101674.03;1778104;79;21030;-79
2022/12/17 14:02:41;;;;;;;70.10;25.43;;;;;;;-3.90;88.77;101677.50;1781174;77;20959;-79
2022/12/17 14:05:19;;;;;;;83.47;32.37;;;;;;;-3.89;88.76;101674.98;1798967;79;21000;-79
2022/12/17 14:07:46;;;;;;;71.73;28.63;;;;;;;-3.89;88.71;101683.08;1791604;79;21099;-79
2022/12/17 14:10:17;;;;;;;65.50;25.57;;;;;;;-3.93;88.64;101689.77;1799730;77;21019;-80
2022/12/17 14:12:46;;;;;;;85.27;29.93;;;;;;;-3.94;88.59;101689.69;1799818;79;20988;-79
2022/12/17 14:15:30;;;;;;;66.60;25.70;;;;;;;-3.96;88.68;101693.86;1801037;77;21019;-78
2022/12/17 14:18:00;;;;;;;75.85;35.05;;;;;;;-3.98;88.67;101703.19;1782944;79;39344;-79
2022/12/17 14:20:34;;;;;;;57.63;25.17;;;;;;;-3.98;88.39;101716.86;1803647;79;22104;-78
2022/12/17 14:23:06;;;;;;;67.10;25.60;;;;;;;-3.99;88.35;101716.41;1797021;79;21031;-80
2022/12/17 14:25:37;;;;;;;59.70;24.27;;;;;;;-3.97;88.74;101716.04;1799692;79;21457;-78
2022/12/17 14:28:33;;;;;;;64.73;24.03;;;;;;;-3.97;88.62;101725.41;1799614;78;21019;-79
2022/12/17 14:31:08;;;;;;;61.57;24.97;;;;;;;-3.99;88.61;101718.06;1799412;78;21276;-79
2022/12/17 14:33:37;;;;;;;60.97;22.60;;;;;;;-4.00;88.74;101726.56;1796904;79;21143;-78
2022/12/17 14:36:17;;;;;;;63.20;25.07;;;;;;;-3.99;88.81;101735.98;1800455;79;21038;-79
2022/12/17 14:38:55;;;;;;;;;;;;;;;-4.05;88.46;101734.94;1803362;78;21332;-77
2022/12/17 14:44:27;;;;;;;71.30;26.30;;;;;;;-4.14;88.86;101746.03;1800870;79;21019;-75
2022/12/17 14:47:15;;;;;;;62.07;22.83;;;;;;;-4.15;88.82;101749.42;1800686;79;21118;-78
2022/12/17 14:50:11;;;;;;;71.93;28.33;;;;;;;-4.14;88.99;101749.88;1800559;78;21070;-79
2022/12/17 14:52:45;;;;;;;61.93;24.17;;;;;;;-4.12;89.08;101753.80;1797532;78;21003;-80
2022/12/17 14:55:33;;;;;;;58.90;23.17;;;;;;;-4.14;88.89;101756.28;1801299;79;21344;-80
2022/12/17 14:58:20;;;;;;;83.90;33.60;;;;;;;-4.19;88.58;101755.60;1800845;79;21031;-81
2022/12/17 15:00:59;;;;;;;65.73;26.77;;;;;;;-4.26;88.64;101760.45;1800377;78;21116;-79
2022/12/17 15:03:32;;;;;;;60.90;21.77;;;;;;;-4.30;88.61;101755.99;1800113;79;21019;-77
2022/12/17 15:06:10;;;;;;;67.23;26.03;;;;;;;-4.34;88.55;101764.35;1799896;78;21002;-80
2022/12/17 15:08:40;;;;;;;80.13;34.33;;;;;;;-4.35;88.85;101762.98;1800929;79;21019;-80
2022/12/17 15:11:13;;;;;;;60.50;25.08;;;;;;;-4.32;89.07;101765.31;1800733;79;20995;-81
2022/12/17 15:13:41;;;;;;;60.57;23.37;;;;;;;-4.32;88.90;101769.55;1800447;79;21198;-79
2022/12/17 15:16:09;;;;;;;58.87;23.07;;;;;;;-4.34;88.76;101780.12;1800051;78;21034;-80
2022/12/17 15:18:36;;;;;;;59.50;21.63;;;;;;;-4.38;88.63;101780.77;1800636;79;21020;-79
2022/12/17 15:21:04;;;;;;;57.60;23.80;;;;;;;-4.42;88.62;101790.41;1800960;79;21050;-79
2022/12/17 15:23:32;;;;;;;56.43;24.40;;;;;;;-4.44;88.64;101792.02;1798305;78;21052;-81
2022/12/17 15:25:59;;;;;;;64.93;24.90;;;;;;;-4.45;88.81;101796.27;1798334;79;21324;-83
2022/12/17 15:28:26;;;;;;;62.90;23.23;;;;;;;-4.44;88.77;101790.33;1798591;79;21011;-78
2022/12/17 15:30:53;;;;;;;61.37;26.43;;;;;;;-4.47;88.67;101804.67;1801046;78;21049;-79
2022/12/17 15:33:20;;;;;;;59.50;22.73;;;;;;;-4.50;88.66;101806.68;1801396;79;21015;-77
2022/12/17 15:35:48;;;;;;;55.00;22.83;;;;;;;-4.53;88.63;101809.97;1801735;79;21065;-80
2022/12/17 15:38:15;;;;;;;61.20;25.47;;;;;;;-4.56;88.62;101808.55;1801187;79;21073;-84
2022/12/17 15:40:42;;;;;;;52.20;20.87;;;;;;;-4.58;88.64;101811.43;1797286;78;21027;-78
2022/12/17 15:43:10;;;;;;;55.73;21.47;;;;;;;-4.58;88.89;101810.16;1799478;78;21026;-79
2022/12/17 15:45:48;;;;;;;62.30;22.73;;;;;;;-4.57;88.84;101808.09;1782491;78;21006;-81
2022/12/17 15:48:19;;;;;;;56.63;22.07;;;;;;;-4.56;88.82;101810.23;1798839;79;22259;-79
2022/12/17 15:50:48;;;;;;;60.47;23.20;;;;;;;-4.58;88.66;101808.88;1801790;79;21945;-79
2022/12/17 15:53:18;;;;;;;52.83;21.00;;;;;;;-4.61;88.66;101809.14;1801355;79;21007;-80
2022/12/17 15:55:45;;;;;;;63.37;23.50;;;;;;;-4.62;88.76;101813.39;1799870;78;21038;-81
2022/12/17 15:58:12;;;;;;;55.93;21.80;;;;;;;-4.62;88.71;101817.63;1800662;78;21456;-78
2022/12/17 16:00:44;;;;;;;58.73;24.10;;;;;;;-4.64;88.60;101820.52;1800931;79;21023;-80
2022/12/17 16:03:13;;;;;;;64.37;27.97;;;;;;;-4.67;88.48;101826.36;1800458;79;22165;-78
2022/12/17 16:06:07;;;;;;;62.40;25.20;;;;;;;-4.68;88.63;101828.83;1801958;78;21058;-79
2022/12/17 16:08:38;;;;;;;65.03;24.70;;;;;;;-4.69;88.60;101829.23;1798587;79;20984;-78
2022/12/17 16:11:10;;;;;;;;;;;;;;;-4.67;88.72;101839.15;1801126;78;21023;-79
2022/12/17 16:13:38;;;;;;;69.70;24.83;;;;;;;-4.65;88.77;101834.99;1798944;78;20488;-80
2022/12/17 16:16:07;;;;;;;70.97;26.37;;;;;;;-4.67;88.76;101841.70;1799803;79;21178;-79
2022/12/17 16:18:51;;;;;;;60.20;25.47;;;;;;;-4.63;88.92;101847.84;1800059;78;21003;-78
2022/12/17 16:21:20;;;;;;;72.53;26.53;;;;;;;-4.61;88.82;101852.64;1801863;77;21019;-79
2022/12/17 16:23:50;;;;;;;63.17;25.30;;;;;;;-4.65;88.53;101852.03;1798495;79;21070;-78
2022/12/17 16:26:18;;;;;;;67.43;27.50;;;;;;;-4.65;88.57;101857.15;1793193;79;21062;-82
2022/12/17 16:28:51;;;;;;;73.47;29.10;;;;;;;-4.66;88.61;101860.08;1793215;79;21460;-81
2022/12/17 16:31:21;;;;;;;70.93;28.87;;;;;;;-4.65;88.60;101866.97;1796335;79;21580;-81
2022/12/17 16:33:48;;;;;;;67.32;27.35;;;;;;;-4.64;88.55;101869.12;1793889;79;21018;-80
2022/12/17 16:36:19;;;;;;;68.87;27.70;;;;;;;-4.67;88.40;101871.53;1793576;79;21012;-79
2022/12/17 16:38:52;;;;;;;61.93;24.10;;;;;;;-4.69;88.50;101874.41;1790708;79;21011;-80
2022/12/17 16:41:22;;;;;;;67.37;29.70;;;;;;;-4.69;88.49;101879.53;1796361;79;21813;-81
2022/12/17 16:43:49;;;;;;;70.43;28.50;;;;;;;-4.69;88.51;101885.52;1797137;79;20996;-79
2022/12/17 16:46:37;;;;;;;65.73;25.60;;;;;;;-4.70;88.37;101881.22;1793222;79;21036;-81
2022/12/17 16:49:16;;;;;;;63.80;24.87;;;;;;;-4.73;88.33;101886.19;1783461;79;21014;-81
2022/12/17 16:51:47;;;;;;;60.37;24.37;;;;;;;-4.74;88.54;101888.25;1803223;79;21011;-80
2022/12/17 16:54:19;;;;;;;56.15;22.98;;;;;;;-4.73;88.58;101878.11;1804969;79;21429;-78
2022/12/17 16:56:47;;;;;;;64.03;24.50;;;;;;;-4.74;88.36;101884.41;1801099;79;21062;-78
2022/12/17 16:59:17;;;;;;;64.07;24.90;;;;;;;-4.75;88.48;101883.54;1806285;79;21377;-77
2022/12/17 17:02:04;;;;;;;55.67;21.73;;;;;;;-4.76;88.32;101886.05;1798046;79;20996;-76
2022/12/17 17:04:43;;;;;;;59.47;22.03;;;;;;;-4.77;88.32;101888.97;1792866;79;21457;-77
2022/12/17 17:07:35;;;;;;;56.53;23.93;;;;;;;-4.81;88.18;101892.20;1792652;79;21272;-77
2022/12/17 17:10:03;;;;;;;56.47;22.40;;;;;;;-4.84;88.27;101893.33;1782596;79;21007;-76
2022/12/17 17:12:30;;;;;;;60.43;26.00;;;;;;;-4.88;88.14;101890.53;1790999;78;21018;-77
2022/12/17 17:14:57;;;;;;;64.03;22.93;;;;;;;-4.91;88.11;101899.34;1798588;79;21011;-77
2022/12/17 17:17:25;;;;;;;55.47;21.87;;;;;;;-4.95;88.23;101901.75;1775405;79;21028;-77
2022/12/17 17:19:52;;;;;;;64.97;23.77;;;;;;;-4.95;88.17;101913.25;1800091;79;21832;-77
2022/12/17 17:22:19;;;;;;;60.63;22.33;;;;;;;-4.99;88.19;101909.17;1790273;79;21490;-77
2022/12/17 17:24:48;;;;;;;58.17;22.63;;;;;;;-5.01;88.19;101911.67;1790860;78;21074;-76
2022/12/17 17:27:15;;;;;;;63.40;24.70;;;;;;;-4.98;88.44;101924.61;1798310;79;21010;-76
2022/12/17 17:29:43;;;;;;;63.27;23.70;;;;;;;-4.97;88.31;101922.52;1805048;79;21027;-77
2022/12/17 17:32:10;;;;;;;85.57;36.43;;;;;;;-5.01;88.20;101920.63;1800909;79;21927;-77
2022/12/17 17:34:38;;;;;;;71.37;32.47;;;;;;;-5.03;88.08;101931.57;1807338;79;21663;-76
2022/12/17 17:37:07;;;;;;;67.17;26.13;;;;;;;-5.09;88.07;101929.58;1801858;79;21026;-76
2022/12/17 17:39:34;;;;;;;63.47;26.13;;;;;;;-5.08;88.23;101926.62;1780496;79;21016;-84
2022/12/17 17:42:01;;;;;;;82.27;31.10;;;;;;;-5.12;88.07;101935.82;1800290;79;21082;-77
2022/12/17 17:44:30;;;;;;;77.27;30.53;;;;;;;-5.13;88.21;101939.16;1802861;79;21265;-77
2022/12/17 17:47:19;;;;;;;78.12;29.32;;;;;;;-5.14;88.18;101945.08;1782908;79;21414;-77
2022/12/17 17:50:51;;;;;;;81.07;31.93;;;;;;;-5.14;88.31;101943.80;1778711;80;21513;-79
2022/12/17 17:53:23;;;;;;;83.78;33.45;;;;;;;-5.13;88.44;101949.38;1768930;80;21034;-77
2022/12/17 17:55:53;;;;;;;87.27;34.00;;;;;;;-5.11;88.52;101951.63;1762355;80;21054;-78
2022/12/17 17:59:13;;;;;;;90.60;36.37;;;;;;;-5.13;88.29;101950.66;1774474;80;21188;-78
2022/12/17 18:01:49;;;;;;;94.53;34.83;;;;;;;-5.13;88.38;101956.18;1777512;80;21007;-77
2022/12/17 18:04:26;;;;;;;92.40;36.13;;;;;;;-5.14;88.57;101955.31;1782158;80;20983;-76
2022/12/17 18:06:55;;;;;;;87.03;34.10;;;;;;;-5.11;88.79;101954.19;1769061;80;21057;-75
2022/12/17 18:09:24;;;;;;;88.70;37.03;;;;;;;-5.08;88.75;101959.45;1757224;80;20977;-76
2022/12/17 18:11:53;;;;;;;92.93;36.13;;;;;;;-5.05;88.68;101967.68;1773058;80;21948;-75
2022/12/17 18:14:21;;;;;;;102.90;37.20;;;;;;;-5.07;88.56;101972.73;1766144;80;20984;-75
2022/12/17 18:16:49;;;;;;;97.97;36.67;;;;;;;-5.09;88.45;101974.73;1777454;80;21016;-76
2022/12/17 18:19:22;;;;;;;92.37;36.20;;;;;;;-5.08;88.49;101977.34;1780239;80;21098;-75
2022/12/17 18:21:52;;;;;;;97.72;36.90;;;;;;;-5.08;88.48;101985.02;1778616;80;21051;-75
2022/12/17 18:24:22;;;;;;;89.37;34.30;;;;;;;-5.09;88.37;101987.11;1776266;80;21045;-76
2022/12/17 18:26:51;;;;;;;81.67;31.60;;;;;;;-5.11;88.45;101987.42;1767071;81;21271;-75
2022/12/17 18:29:22;;;;;;;80.80;33.47;;;;;;;-5.12;88.44;101988.23;1765797;81;21002;-75
2022/12/17 18:31:51;;;;;;;96.57;35.80;;;;;;;-5.10;88.71;101986.61;1766066;81;21450;-75
2022/12/17 18:34:25;;;;;;;90.10;36.07;;;;;;;-5.07;88.88;101986.80;1766696;81;21008;-76
2022/12/17 18:36:53;;;;;;;94.53;35.17;;;;;;;-5.05;88.71;101989.41;1766749;81;21934;-75
2022/12/17 18:39:24;;;;;;;90.60;34.60;;;;;;;-5.04;88.75;101989.51;1748713;81;20980;-75
2022/12/17 18:44:41;;;;;;;95.23;36.23;;;;;;;-5.02;88.69;101991.72;1766528;81;21008;-75
2022/12/17 18:47:10;;;;;;;94.70;35.93;;;;;;;-5.04;88.48;101993.34;1766897;81;21505;-75
2022/12/17 18:49:39;;;;;;;86.10;34.67;;;;;;;-5.05;88.47;102002.20;1765243;80;21060;-76
2022/12/17 18:52:07;;;;;;;81.23;33.53;;;;;;;-5.05;88.46;102000.52;1766716;81;21000;-75
2022/12/17 18:54:35;;;;;;;91.40;36.67;;;;;;;-5.06;88.54;102009.40;1765539;81;21022;-75
2022/12/17 18:57:04;;;;;;;91.40;35.83;;;;;;;-5.06;88.54;102013.23;1766863;81;20992;-75
2022/12/17 18:59:33;;;;;;;90.17;36.25;;;;;;;-5.04;88.78;102020.59;1736597;80;21012;-76
2022/12/17 19:02:00;;;;;;;93.57;35.60;;;;;;;-5.02;88.70;102026.23;1755668;81;22141;-75
2022/12/17 19:04:29;;;;;;;88.33;36.83;;;;;;;-5.02;88.66;102024.96;1766731;81;20980;-74
2022/12/17 19:06:57;;;;;;;96.40;36.23;;;;;;;-5.03;88.59;102023.22;1751177;80;21000;-75
2022/12/17 19:09:28;;;;;;;95.60;39.47;;;;;;;-5.05;88.63;102024.80;1742470;81;20981;-75
2022/12/17 19:11:57;;;;;;;105.23;41.17;;;;;;;-5.06;88.52;102031.13;1767078;81;21494;-75
2022/12/17 19:14:25;;;;;;;102.80;42.70;;;;;;;-5.08;88.63;102029.76;1766711;81;21125;-75
2022/12/17 19:16:56;;;;;;;96.70;36.33;;;;;;;-5.06;88.82;102038.39;1766943;81;21032;-86
2022/12/17 19:19:25;;;;;;;95.23;37.57;;;;;;;-5.05;88.79;102037.99;1765627;80;21040;-75
2022/12/17 19:21:59;;;;;;;118.67;46.60;;;;;;;-5.08;88.69;102042.54;1725011;81;21565;-75
2022/12/17 19:24:27;;;;;;;91.07;39.37;;;;;;;-5.07;88.71;102043.41;1766973;80;21067;-75
2022/12/17 19:26:55;;;;;;;97.07;37.83;;;;;;;-5.06;88.91;102040.95;1771333;80;21081;-75
2022/12/17 19:29:24;;;;;;;87.83;38.87;;;;;;;-5.06;88.62;102043.52;1773870;80;20995;-75
2022/12/17 19:31:52;;;;;;;85.47;36.77;;;;;;;-5.07;88.56;102047.25;1779005;80;21024;-75
2022/12/17 19:34:20;;;;;;;90.27;38.67;;;;;;;-5.11;88.28;102050.45;1772502;80;20999;-75
2022/12/17 19:36:48;;;;;;;81.67;32.67;;;;;;;-5.16;88.24;102055.31;1772205;81;21020;-75
2022/12/17 19:39:19;;;;;;;82.23;31.93;;;;;;;-5.19;88.23;102057.31;1762032;81;21201;-75
2022/12/17 19:41:51;;;;;;;97.03;40.93;;;;;;;-5.22;88.32;102046.92;1765373;80;21015;-75
2022/12/17 19:44:19;;;;;;;87.83;39.90;;;;;;;-5.22;88.57;102052.44;1761847;80;21019;-75
2022/12/17 19:46:48;;;;;;;168.23;68.07;;;;;;;-5.19;88.64;102058.99;1773724;80;21602;-75
2022/12/17 19:49:17;;;;;;;99.57;40.90;;;;;;;-5.22;88.54;102062.66;1755491;80;21515;-75
2022/12/17 19:51:45;;;;;;;87.13;33.93;;;;;;;-5.20;88.71;102063.64;1740124;80;21137;-75
2022/12/17 19:54:14;;;;;;;146.77;59.23;;;;;;;-5.18;88.74;102064.20;1765159;81;22098;-74
2022/12/17 19:56:44;;;;;;;78.93;33.23;;;;;;;-5.20;88.61;102065.78;1772124;81;21011;-75
2022/12/17 19:59:12;;;;;;;131.67;54.27;;;;;;;-5.23;88.53;102064.34;1772664;81;21497;-75
2022/12/17 20:01:46;;;;;;;82.33;34.27;;;;;;;-5.21;88.80;102065.32;1772073;81;21019;-75
2022/12/17 20:04:15;;;;;;;126.40;52.07;;;;;;;-5.18;88.86;102062.05;1772288;81;21212;-75
2022/12/17 20:06:46;;;;;;;106.53;41.73;;;;;;;-5.16;88.92;102071.94;1777884;80;21027;-75
2022/12/17 20:09:16;;;;;;;;;;;;;;;-5.12;88.91;102076.84;1768562;80;21007;-75
2022/12/17 20:11:44;;;;;;;78.62;31.45;;;;;;;-5.13;88.78;102082.32;1772967;80;20184;-75
2022/12/17 20:14:20;;;;;;;71.57;30.43;;;;;;;-5.14;88.79;102085.69;1772431;81;20989;-75
2022/12/17 20:16:55;;;;;;;78.20;31.87;;;;;;;-5.16;88.66;102094.94;1770272;80;23516;-75
2022/12/17 20:19:29;;;;;;;81.87;32.13;;;;;;;-5.15;88.79;102098.00;1767899;81;21513;-75
2022/12/17 20:22:01;;;;;;;80.37;30.93;;;;;;;-5.14;88.73;102098.88;1771376;81;21000;-75
2022/12/17 20:24:29;;;;;;;69.40;29.33;;;;;;;-5.21;88.36;102111.70;1771676;79;20977;-75
2022/12/17 20:26:58;;;;;;;68.47;26.87;;;;;;;-5.27;88.56;102108.41;1772505;80;21071;-75
2022/12/17 20:29:28;;;;;;;88.37;35.37;;;;;;;-5.30;88.39;102113.36;1768078;80;21498;-75
2022/12/17 20:32:01;;;;;;;104.07;42.00;;;;;;;-5.33;88.53;102120.86;1770648;81;20988;-75
2022/12/17 20:34:28;;;;;;;75.07;29.47;;;;;;;-5.32;88.83;102125.20;1766023;81;21510;-75
2022/12/17 20:36:57;;;;;;;71.60;27.90;;;;;;;-5.31;88.78;102135.02;1770302;80;20981;-75
2022/12/17 20:39:25;;;;;;;71.40;26.33;;;;;;;-5.37;88.57;102130.45;1766619;81;20981;-75
2022/12/17 20:41:53;;;;;;;60.90;23.23;;;;;;;-5.38;88.72;102135.06;1766611;81;21121;-75
2022/12/17 20:44:20;;;;;;;59.07;23.20;;;;;;;-5.36;88.84;102132.20;1766854;81;20977;-75
2022/12/17 20:46:48;;;;;;;61.57;24.37;;;;;;;-5.36;88.86;102128.77;1766791;81;21530;-75
2022/12/17 20:49:18;;;;;;;74.63;30.20;;;;;;;-5.37;88.86;102140.67;1766886;80;21052;-76
2022/12/17 20:51:48;;;;;;;118.10;50.15;;;;;;;-5.39;88.85;102139.70;1776128;80;21541;-77
2022/12/17 20:54:16;;;;;;;95.83;40.52;;;;;;;-5.41;88.99;102134.49;1774434;80;21723;-77
2022/12/17 20:56:44;;;;;;;58.43;24.43;;;;;;;-5.39;89.11;102147.37;1766623;80;21221;-77
2022/12/17 20:59:17;;;;;;;85.40;32.93;;;;;;;-5.36;89.17;102143.70;1766712;81;21541;-75
2022/12/17 21:01:47;;;;;;;54.80;22.53;;;;;;;-5.37;89.18;102145.78;1765135;81;21018;-76
2022/12/17 21:04:15;;;;;;;53.95;22.25;;;;;;;-5.33;89.31;102149.38;1771183;80;21217;-75
2022/12/17 21:06:46;;;;;;;84.83;28.27;;;;;;;-5.32;89.17;102146.02;1772151;80;21113;-76
2022/12/17 21:09:21;;;;;;;66.80;24.77;;;;;;;-5.33;89.17;102140.44;1780393;79;21502;-76
2022/12/17 21:11:51;;;;;;;108.57;45.77;;;;;;;-5.29;89.43;102146.19;1778126;79;21027;-77
2022/12/17 21:14:19;;;;;;;55.23;23.00;;;;;;;-5.25;89.47;102141.34;1775392;80;21043;-77
2022/12/17 21:16:47;;;;;;;136.63;43.97;;;;;;;-5.22;89.36;102147.02;1761088;80;21003;-76
2022/12/17 21:19:27;;;;;;;62.87;23.70;;;;;;;-5.22;89.26;102153.01;1729082;81;21521;-77
2022/12/17 21:25:23;;;;;;;71.93;27.57;;;;;;;-5.23;89.31;102162.76;1741710;80;21010;-76
2022/12/17 21:27:50;;;;;;;55.70;23.63;;;;;;;-5.20;89.48;102163.33;1762618;80;21445;-76
2022/12/17 21:30:18;;;;;;;53.73;20.67;;;;;;;-5.17;89.49;102167.33;1772029;80;21062;-76
2022/12/17 21:32:45;;;;;;;53.23;19.47;;;;;;;-5.17;89.55;102163.09;1773501;80;21474;-75
2022/12/17 21:35:14;;;;;;;63.13;23.27;;;;;;;-5.12;89.74;102168.87;1777306;80;21031;-75
2022/12/17 21:37:41;;;;;;;50.60;20.00;;;;;;;-5.08;89.93;102169.11;1777360;80;21700;-76
2022/12/17 21:40:12;;;;;;;55.40;21.63;;;;;;;-5.06;89.75;102168.80;1777287;80;22015;-75
2022/12/17 21:45:25;;;;;;;63.67;25.50;;;;;;;-5.04;89.66;102169.77;1775553;80;21122;-76
2022/12/17 21:47:52;;;;;;;56.50;22.63;;;;;;;-5.02;89.76;102177.51;1777617;80;20904;-75
2022/12/17 21:50:19;;;;;;;51.87;21.27;;;;;;;-5.00;89.79;102178.48;1777156;80;21047;-76
2022/12/17 21:52:47;;;;;;;60.10;21.17;;;;;;;-4.99;89.77;102171.28;1766907;80;21012;-75
2022/12/17 21:55:16;;;;;;;52.83;21.70;;;;;;;-4.95;89.89;102179.21;1746957;80;21361;-75
2022/12/17 21:57:44;;;;;;;54.30;22.67;;;;;;;-4.91;89.99;102178.97;1770182;80;22110;-75
2022/12/17 22:00:13;;;;;;;54.10;19.17;;;;;;;-4.88;89.97;102184.25;1735431;80;20934;-75
2022/12/17 22:02:42;;;;;;;45.12;17.55;;;;;;;-4.86;89.80;102189.46;1763765;80;21013;-75
2022/12/17 22:05:09;;;;;;;46.13;18.57;;;;;;;-4.87;89.72;102192.42;1774195;80;20984;-76
2022/12/17 22:07:37;;;;;;;48.37;17.23;;;;;;;-4.87;89.64;102186.44;1773478;80;21029;-76
2022/12/17 22:10:05;;;;;;;42.53;17.07;;;;;;;-4.90;89.56;102187.52;1749850;80;22159;-76
2022/12/17 22:15:18;;;;;;;48.67;19.37;;;;;;;-4.95;89.54;102184.33;1762395;80;21024;-75
2022/12/17 22:17:46;;;;;;;45.10;17.70;;;;;;;-4.96;89.57;102186.78;1776921;80;21011;-76
2022/12/17 22:20:15;;;;;;;54.73;23.67;;;;;;;-4.95;89.92;102187.29;1777244;80;21035;-75
2022/12/17 22:22:43;;;;;;;52.30;20.47;;;;;;;-4.90;90.07;102197.38;1774355;80;21167;-76
2022/12/17 22:25:11;;;;;;;52.47;21.07;;;;;;;-4.84;90.19;102195.55;1776939;80;21473;-76
2022/12/17 22:27:39;;;;;;;53.90;18.43;;;;;;;-4.83;90.18;102195.61;1743817;81;21453;-75
2022/12/17 22:33:01;;;;;;;44.00;17.95;;;;;;;-4.86;89.96;102196.73;1767032;81;21015;-76
2022/12/17 22:35:35;;;;;;;49.37;18.87;;;;;;;-4.87;89.82;102200.50;1766660;81;21122;-75
2022/12/17 22:38:05;;;;;;;75.40;23.00;;;;;;;-4.88;90.07;102198.72;1765412;81;20988;-76
2022/12/17 22:40:35;;;;;;;75.53;28.47;;;;;;;-4.86;90.13;102200.56;1762555;81;21005;-75
2022/12/17 22:45:49;;;;;;;48.60;18.10;;;;;;;-4.80;90.26;102203.86;1766837;80;20985;-75
2022/12/17 22:48:16;;;;;;;46.20;17.63;;;;;;;-4.80;90.19;102207.29;1765914;81;21095;-75
2022/12/17 22:50:43;;;;;;;48.50;17.63;;;;;;;-4.79;90.26;102203.95;1765926;81;21004;-75
2022/12/17 22:53:10;;;;;;;48.70;18.47;;;;;;;-4.77;90.19;102194.66;1742008;81;21003;-75
2022/12/17 22:55:37;;;;;;;48.77;19.37;;;;;;;-4.78;90.12;102204.42;1749766;81;20988;-76
2022/12/17 22:58:04;;;;;;;46.37;18.63;;;;;;;-4.80;90.04;102216.24;1767015;81;21016;-75
2022/12/17 23:00:34;;;;;;;52.80;17.77;;;;;;;-4.81;90.20;102216.17;1766643;81;21068;-74
2022/12/17 23:03:02;;;;;;;50.65;17.30;;;;;;;-4.80;90.25;102211.53;1766295;81;21082;-75
2022/12/17 23:05:30;;;;;;;41.30;17.57;;;;;;;-4.76;90.46;102216.91;1765583;81;21490;-76
2022/12/17 23:07:58;;;;;;;45.20;18.47;;;;;;;-4.71;90.49;102218.45;1766915;81;21471;-76
2022/12/17 23:10:27;;;;;;;47.53;17.23;;;;;;;-4.69;90.49;102216.83;1766616;81;21008;-75
2022/12/17 23:12:54;;;;;;;46.30;17.20;;;;;;;-4.64;90.60;102210.69;1766787;81;21098;-76
2022/12/17 23:15:35;;;;;;;43.50;17.63;;;;;;;-4.60;90.51;102216.06;1766025;81;21491;-75
2022/12/17 23:18:05;;;;;;;42.93;17.60;;;;;;;-4.58;90.52;102222.12;1764748;81;20998;-76
2022/12/17 23:20:34;;;;;;;49.48;19.45;;;;;;;-4.54;90.61;102223.19;1709653;81;21000;-75
2022/12/17 23:23:01;;;;;;;44.10;18.23;;;;;;;-4.50;90.53;102222.13;1708043;81;21051;-75
2022/12/17 23:25:30;;;;;;;50.27;20.20;;;;;;;-4.48;90.60;102226.07;1761681;80;20989;-75
2022/12/17 23:27:57;;;;;;;43.23;17.93;;;;;;;-4.44;90.71;102227.98;1774549;80;20987;-76
2022/12/17 23:30:24;;;;;;;45.07;16.93;;;;;;;-4.40;90.81;102229.92;1784617;80;20991;-75
2022/12/17 23:32:52;;;;;;;48.23;18.90;;;;;;;-4.36;90.66;102228.39;1785550;80;21047;-75
2022/12/17 23:35:20;;;;;;;44.13;17.33;;;;;;;-4.33;90.65;102226.86;1782182;80;21082;-75
2022/12/17 23:37:48;;;;;;;50.53;17.87;;;;;;;-4.29;90.64;102229.21;1772417;80;21270;-75
2022/12/17 23:40:15;;;;;;;43.60;17.30;;;;;;;-4.30;90.50;102227.02;1779319;80;21078;-75
2022/12/17 23:42:43;;;;;;;47.07;18.43;;;;;;;-4.27;90.60;102230.14;1757119;80;20992;-75
2022/12/17 23:45:10;;;;;;;48.37;18.40;;;;;;;-4.26;90.51;102221.69;1760545;80;20993;-75
2022/12/17 23:47:39;;;;;;;46.43;17.83;;;;;;;-4.22;90.58;102219.75;1772341;80;21068;-75
2022/12/17 23:50:09;;;;;;;49.47;18.10;;;;;;;-4.17;90.55;102227.69;1765886;80;21136;-76
2022/12/17 23:52:37;;;;;;;42.07;17.30;;;;;;;-4.15;90.65;102224.41;1783120;80;21011;-75
2022/12/17 23:55:06;;;;;;;41.33;17.40;;;;;;;-4.12;90.64;102223.28;1782816;80;21039;-75
2022/12/17 23:57:33;;;;;;;42.30;19.30;;;;;;;-4.08;90.60;102222.63;1753539;80;21013;-76
